Terminal Aerodrome Forecast
Issued by NWS Wilmington, OH

Home | Current Version | Previous Version | Text Only | Print | Product List | Glossary On
Versions: 1 2 3 4 5 6 7 8 9 10 11 12 13 14
811
FTUS41 KILN 241741 AAB
TAFILN
TAF AMD
KILN 241741Z 2418/2518 21016G24KT P6SM SCT040
     FM242300 21011KT P6SM FEW045
     FM250600 18006KT P6SM BKN200
     FM251500 19011KT P6SM SCT040 BKN200=

USA.gov is the U.S. government's official web portal to all federal, state and local government web resources and services.